sensor_id;sensor_type;location;lat;lon;timestamp;P1;durP1;ratioP1;P2;durP2;ratioP2
8938;SDS011;4504;48.810;9.172;2023-02-24T00:00:07;121.50;;;7.22;;
8938;SDS011;4504;48.810;9.172;2023-02-24T00:02:57;119.97;;;8.30;;
8938;SDS011;4504;48.810;9.172;2023-02-24T00:05:31;122.53;;;7.77;;
8938;SDS011;4504;48.810;9.172;2023-02-24T00:07:59;127.47;;;8.25;;
8938;SDS011;4504;48.810;9.172;2023-02-24T00:10:27;121.57;;;7.88;;
8938;SDS011;4504;48.810;9.172;2023-02-24T00:12:55;123.07;;;6.75;;
8938;SDS011;4504;48.810;9.172;2023-02-24T00:15:21;121.88;;;7.68;;
8938;SDS011;4504;48.810;9.172;2023-02-24T00:17:48;122.15;;;7.57;;
8938;SDS011;4504;48.810;9.172;2023-02-24T00:20:16;119.55;;;8.48;;
8938;SDS011;4504;48.810;9.172;2023-02-24T00:22:43;124.32;;;7.35;;
8938;SDS011;4504;48.810;9.172;2023-02-24T00:25:10;124.20;;;8.27;;
8938;SDS011;4504;48.810;9.172;2023-02-24T00:27:40;125.18;;;9.20;;
8938;SDS011;4504;48.810;9.172;2023-02-24T00:30:08;120.80;;;8.27;;
8938;SDS011;4504;48.810;9.172;2023-02-24T00:32:36;124.70;;;8.80;;
8938;SDS011;4504;48.810;9.172;2023-02-24T00:35:03;125.25;;;9.38;;
8938;SDS011;4504;48.810;9.172;2023-02-24T00:37:31;120.90;;;8.48;;
8938;SDS011;4504;48.810;9.172;2023-02-24T00:39:59;121.97;;;8.00;;
8938;SDS011;4504;48.810;9.172;2023-02-24T00:42:26;117.45;;;6.82;;
8938;SDS011;4504;48.810;9.172;2023-02-24T00:44:54;125.88;;;9.63;;
8938;SDS011;4504;48.810;9.172;2023-02-24T00:47:21;123.88;;;7.95;;
8938;SDS011;4504;48.810;9.172;2023-02-24T00:49:48;119.18;;;7.25;;
8938;SDS011;4504;48.810;9.172;2023-02-24T00:52:16;119.03;;;7.97;;
8938;SDS011;4504;48.810;9.172;2023-02-24T00:54:44;122.57;;;7.93;;
8938;SDS011;4504;48.810;9.172;2023-02-24T00:57:12;123.28;;;9.38;;
8938;SDS011;4504;48.810;9.172;2023-02-24T00:59:41;122.78;;;8.30;;
8938;SDS011;4504;48.810;9.172;2023-02-24T01:02:13;126.72;;;8.07;;
8938;SDS011;4504;48.810;9.172;2023-02-24T01:04:42;120.97;;;7.65;;
8938;SDS011;4504;48.810;9.172;2023-02-24T01:07:12;134.02;;;8.07;;
8938;SDS011;4504;48.810;9.172;2023-02-24T01:09:41;122.65;;;7.75;;
8938;SDS011;4504;48.810;9.172;2023-02-24T01:12:09;121.63;;;7.50;;
8938;SDS011;4504;48.810;9.172;2023-02-24T01:14:56;123.35;;;7.40;;
8938;SDS011;4504;48.810;9.172;2023-02-24T01:17:24;123.57;;;8.27;;
8938;SDS011;4504;48.810;9.172;2023-02-24T01:19:52;124.22;;;8.25;;
8938;SDS011;4504;48.810;9.172;2023-02-24T01:22:20;121.40;;;8.43;;
8938;SDS011;4504;48.810;9.172;2023-02-24T01:24:48;121.45;;;7.80;;
8938;SDS011;4504;48.810;9.172;2023-02-24T01:27:15;121.28;;;7.82;;
8938;SDS011;4504;48.810;9.172;2023-02-24T01:29:43;121.40;;;8.15;;
8938;SDS011;4504;48.810;9.172;2023-02-24T01:32:12;121.43;;;8.68;;
8938;SDS011;4504;48.810;9.172;2023-02-24T01:34:44;117.07;;;6.50;;
8938;SDS011;4504;48.810;9.172;2023-02-24T01:37:11;120.28;;;7.03;;
8938;SDS011;4504;48.810;9.172;2023-02-24T01:39:40;119.32;;;8.43;;
8938;SDS011;4504;48.810;9.172;2023-02-24T01:42:09;121.78;;;7.22;;
8938;SDS011;4504;48.810;9.172;2023-02-24T01:45:01;120.90;;;7.75;;
8938;SDS011;4504;48.810;9.172;2023-02-24T01:47:37;120.75;;;7.50;;
8938;SDS011;4504;48.810;9.172;2023-02-24T01:50:06;120.43;;;7.25;;
8938;SDS011;4504;48.810;9.172;2023-02-24T01:52:39;120.25;;;7.10;;
8938;SDS011;4504;48.810;9.172;2023-02-24T01:55:12;119.13;;;7.00;;
8938;SDS011;4504;48.810;9.172;2023-02-24T01:57:44;117.10;;;7.22;;
8938;SDS011;4504;48.810;9.172;2023-02-24T02:00:14;120.18;;;7.45;;
8938;SDS011;4504;48.810;9.172;2023-02-24T02:03:05;119.45;;;7.78;;
8938;SDS011;4504;48.810;9.172;2023-02-24T02:05:40;119.55;;;7.50;;
8938;SDS011;4504;48.810;9.172;2023-02-24T02:08:09;123.22;;;8.23;;
8938;SDS011;4504;48.810;9.172;2023-02-24T02:10:39;124.10;;;7.53;;
8938;SDS011;4504;48.810;9.172;2023-02-24T02:13:08;127.38;;;8.40;;
8938;SDS011;4504;48.810;9.172;2023-02-24T02:15:39;118.88;;;7.90;;
8938;SDS011;4504;48.810;9.172;2023-02-24T02:18:15;121.05;;;7.60;;
8938;SDS011;4504;48.810;9.172;2023-02-24T02:27:02;126.97;;;8.02;;
8938;SDS011;4504;48.810;9.172;2023-02-24T02:36:06;122.57;;;8.38;;
8938;SDS011;4504;48.810;9.172;2023-02-24T02:38:40;122.97;;;7.53;;
8938;SDS011;4504;48.810;9.172;2023-02-24T02:41:18;122.70;;;7.13;;
8938;SDS011;4504;48.810;9.172;2023-02-24T02:43:50;119.55;;;7.47;;
8938;SDS011;4504;48.810;9.172;2023-02-24T02:46:27;120.20;;;8.10;;
8938;SDS011;4504;48.810;9.172;2023-02-24T02:49:01;121.65;;;8.10;;
8938;SDS011;4504;48.810;9.172;2023-02-24T02:51:35;120.78;;;8.10;;
8938;SDS011;4504;48.810;9.172;2023-02-24T02:54:08;120.57;;;7.57;;
8938;SDS011;4504;48.810;9.172;2023-02-24T02:56:41;125.32;;;7.93;;
8938;SDS011;4504;48.810;9.172;2023-02-24T02:59:14;119.85;;;8.05;;
8938;SDS011;4504;48.810;9.172;2023-02-24T03:01:47;121.95;;;8.00;;
8938;SDS011;4504;48.810;9.172;2023-02-24T03:04:16;121.43;;;8.70;;
8938;SDS011;4504;48.810;9.172;2023-02-24T03:06:51;120.03;;;8.07;;
8938;SDS011;4504;48.810;9.172;2023-02-24T03:09:21;122.45;;;8.60;;
8938;SDS011;4504;48.810;9.172;2023-02-24T03:11:52;122.80;;;7.97;;
8938;SDS011;4504;48.810;9.172;2023-02-24T03:14:25;119.47;;;7.57;;
8938;SDS011;4504;48.810;9.172;2023-02-24T03:16:55;124.30;;;8.20;;
8938;SDS011;4504;48.810;9.172;2023-02-24T03:19:30;121.22;;;7.80;;
8938;SDS011;4504;48.810;9.172;2023-02-24T03:22:05;123.38;;;8.90;;
8938;SDS011;4504;48.810;9.172;2023-02-24T03:24:36;123.95;;;9.02;;
8938;SDS011;4504;48.810;9.172;2023-02-24T03:27:07;121.30;;;8.48;;
8938;SDS011;4504;48.810;9.172;2023-02-24T03:29:40;122.60;;;8.13;;
8938;SDS011;4504;48.810;9.172;2023-02-24T03:32:14;123.60;;;7.93;;
8938;SDS011;4504;48.810;9.172;2023-02-24T03:34:47;119.68;;;7.30;;
8938;SDS011;4504;48.810;9.172;2023-02-24T03:37:22;119.90;;;7.45;;
8938;SDS011;4504;48.810;9.172;2023-02-24T03:39:53;119.60;;;7.75;;
8938;SDS011;4504;48.810;9.172;2023-02-24T03:42:24;123.40;;;7.85;;
8938;SDS011;4504;48.810;9.172;2023-02-24T03:44:58;124.43;;;9.20;;
8938;SDS011;4504;48.810;9.172;2023-02-24T03:47:25;118.97;;;7.72;;
8938;SDS011;4504;48.810;9.172;2023-02-24T03:49:52;124.68;;;8.60;;
8938;SDS011;4504;48.810;9.172;2023-02-24T03:52:27;120.07;;;7.25;;
8938;SDS011;4504;48.810;9.172;2023-02-24T03:55:09;124.40;;;8.23;;
8938;SDS011;4504;48.810;9.172;2023-02-24T03:57:45;122.95;;;8.68;;
8938;SDS011;4504;48.810;9.172;2023-02-24T04:00:30;122.05;;;8.13;;
8938;SDS011;4504;48.810;9.172;2023-02-24T04:03:06;124.43;;;8.52;;
8938;SDS011;4504;48.810;9.172;2023-02-24T04:05:41;122.97;;;8.68;;
8938;SDS011;4504;48.810;9.172;2023-02-24T04:08:14;127.20;;;9.20;;
8938;SDS011;4504;48.810;9.172;2023-02-24T04:10:46;122.63;;;9.30;;
8938;SDS011;4504;48.810;9.172;2023-02-24T04:13:21;121.55;;;8.65;;
8938;SDS011;4504;48.810;9.172;2023-02-24T04:16:01;123.35;;;9.63;;
8938;SDS011;4504;48.810;9.172;2023-02-24T04:18:35;127.68;;;8.25;;
8938;SDS011;4504;48.810;9.172;2023-02-24T04:21:04;125.45;;;9.00;;
8938;SDS011;4504;48.810;9.172;2023-02-24T04:23:36;121.47;;;8.63;;
8938;SDS011;4504;48.810;9.172;2023-02-24T04:26:07;125.03;;;8.65;;
8938;SDS011;4504;48.810;9.172;2023-02-24T04:28:36;128.07;;;8.52;;
8938;SDS011;4504;48.810;9.172;2023-02-24T04:31:06;122.45;;;8.80;;
8938;SDS011;4504;48.810;9.172;2023-02-24T04:33:42;125.72;;;9.50;;
8938;SDS011;4504;48.810;9.172;2023-02-24T04:36:15;123.05;;;10.18;;
8938;SDS011;4504;48.810;9.172;2023-02-24T04:38:44;124.55;;;8.77;;
8938;SDS011;4504;48.810;9.172;2023-02-24T04:41:11;124.25;;;9.20;;
8938;SDS011;4504;48.810;9.172;2023-02-24T04:43:45;129.25;;;9.93;;
8938;SDS011;4504;48.810;9.172;2023-02-24T04:46:15;126.22;;;10.73;;
8938;SDS011;4504;48.810;9.172;2023-02-24T04:48:42;135.25;;;8.93;;
8938;SDS011;4504;48.810;9.172;2023-02-24T04:51:09;127.72;;;10.02;;
8938;SDS011;4504;48.810;9.172;2023-02-24T04:53:37;133.82;;;10.68;;
8938;SDS011;4504;48.810;9.172;2023-02-24T04:56:07;125.03;;;9.25;;
8938;SDS011;4504;48.810;9.172;2023-02-24T04:58:34;126.32;;;9.57;;
8938;SDS011;4504;48.810;9.172;2023-02-24T05:01:05;125.13;;;9.50;;
8938;SDS011;4504;48.810;9.172;2023-02-24T05:03:35;126.63;;;9.90;;
8938;SDS011;4504;48.810;9.172;2023-02-24T05:06:06;123.68;;;9.63;;
8938;SDS011;4504;48.810;9.172;2023-02-24T05:08:38;126.22;;;9.63;;
8938;SDS011;4504;48.810;9.172;2023-02-24T05:11:10;128.68;;;9.15;;
8938;SDS011;4504;48.810;9.172;2023-02-24T05:13:40;124.60;;;9.50;;
8938;SDS011;4504;48.810;9.172;2023-02-24T05:16:10;129.77;;;9.80;;
8938;SDS011;4504;48.810;9.172;2023-02-24T05:18:38;124.30;;;9.32;;
8938;SDS011;4504;48.810;9.172;2023-02-24T05:21:07;131.75;;;11.25;;
8938;SDS011;4504;48.810;9.172;2023-02-24T05:23:53;139.10;;;10.35;;
8938;SDS011;4504;48.810;9.172;2023-02-24T05:26:21;123.07;;;9.17;;
8938;SDS011;4504;48.810;9.172;2023-02-24T05:28:50;124.55;;;10.05;;
8938;SDS011;4504;48.810;9.172;2023-02-24T05:31:21;125.32;;;9.95;;
8938;SDS011;4504;48.810;9.172;2023-02-24T05:33:50;128.48;;;9.52;;
8938;SDS011;4504;48.810;9.172;2023-02-24T05:36:20;128.93;;;11.25;;
8938;SDS011;4504;48.810;9.172;2023-02-24T05:38:48;127.85;;;9.23;;
8938;SDS011;4504;48.810;9.172;2023-02-24T05:41:20;125.05;;;10.05;;
8938;SDS011;4504;48.810;9.172;2023-02-24T05:43:57;128.90;;;10.55;;
8938;SDS011;4504;48.810;9.172;2023-02-24T05:46:29;124.07;;;9.47;;
8938;SDS011;4504;48.810;9.172;2023-02-24T05:48:58;129.93;;;11.18;;
8938;SDS011;4504;48.810;9.172;2023-02-24T05:51:27;128.93;;;10.60;;
8938;SDS011;4504;48.810;9.172;2023-02-24T05:53:59;128.38;;;10.40;;
8938;SDS011;4504;48.810;9.172;2023-02-24T05:56:30;124.00;;;8.65;;
8938;SDS011;4504;48.810;9.172;2023-02-24T05:58:59;126.47;;;10.02;;
8938;SDS011;4504;48.810;9.172;2023-02-24T06:01:27;125.65;;;10.75;;
8938;SDS011;4504;48.810;9.172;2023-02-24T06:03:57;128.95;;;10.73;;
8938;SDS011;4504;48.810;9.172;2023-02-24T06:06:30;129.15;;;10.63;;
8938;SDS011;4504;48.810;9.172;2023-02-24T06:09:00;129.13;;;10.55;;
8938;SDS011;4504;48.810;9.172;2023-02-24T06:11:33;129.07;;;10.02;;
8938;SDS011;4504;48.810;9.172;2023-02-24T06:14:00;128.70;;;11.13;;
8938;SDS011;4504;48.810;9.172;2023-02-24T06:16:27;147.07;;;10.93;;
8938;SDS011;4504;48.810;9.172;2023-02-24T06:18:55;130.05;;;10.90;;
8938;SDS011;4504;48.810;9.172;2023-02-24T06:21:22;127.78;;;10.05;;
8938;SDS011;4504;48.810;9.172;2023-02-24T06:23:53;131.68;;;11.98;;
8938;SDS011;4504;48.810;9.172;2023-02-24T06:26:21;125.00;;;9.90;;
8938;SDS011;4504;48.810;9.172;2023-02-24T06:28:52;134.05;;;11.02;;
8938;SDS011;4504;48.810;9.172;2023-02-24T06:31:19;130.37;;;12.50;;
8938;SDS011;4504;48.810;9.172;2023-02-24T06:33:46;130.98;;;10.18;;
8938;SDS011;4504;48.810;9.172;2023-02-24T06:36:13;129.20;;;11.02;;
8938;SDS011;4504;48.810;9.172;2023-02-24T06:38:40;128.85;;;10.27;;
8938;SDS011;4504;48.810;9.172;2023-02-24T06:41:07;132.25;;;10.88;;
8938;SDS011;4504;48.810;9.172;2023-02-24T06:43:36;132.32;;;10.95;;
8938;SDS011;4504;48.810;9.172;2023-02-24T06:46:05;143.23;;;11.52;;
8938;SDS011;4504;48.810;9.172;2023-02-24T06:48:33;129.10;;;10.95;;
8938;SDS011;4504;48.810;9.172;2023-02-24T06:51:02;136.95;;;12.32;;
8938;SDS011;4504;48.810;9.172;2023-02-24T06:53:30;131.88;;;10.18;;
8938;SDS011;4504;48.810;9.172;2023-02-24T06:56:02;132.32;;;12.10;;
8938;SDS011;4504;48.810;9.172;2023-02-24T06:58:39;135.38;;;11.02;;
8938;SDS011;4504;48.810;9.172;2023-02-24T07:01:09;131.15;;;11.95;;
8938;SDS011;4504;48.810;9.172;2023-02-24T07:03:38;130.00;;;10.95;;
8938;SDS011;4504;48.810;9.172;2023-02-24T07:06:11;127.15;;;10.60;;
8938;SDS011;4504;48.810;9.172;2023-02-24T07:08:46;127.80;;;12.32;;
8938;SDS011;4504;48.810;9.172;2023-02-24T07:11:13;133.18;;;12.23;;
8938;SDS011;4504;48.810;9.172;2023-02-24T07:13:43;126.63;;;10.98;;
8938;SDS011;4504;48.810;9.172;2023-02-24T07:16:13;130.75;;;11.00;;
8938;SDS011;4504;48.810;9.172;2023-02-24T07:18:41;132.00;;;13.02;;
8938;SDS011;4504;48.810;9.172;2023-02-24T07:21:12;137.27;;;11.30;;
8938;SDS011;4504;48.810;9.172;2023-02-24T07:23:41;136.48;;;12.65;;
8938;SDS011;4504;48.810;9.172;2023-02-24T07:26:10;138.48;;;12.32;;
8938;SDS011;4504;48.810;9.172;2023-02-24T07:28:39;133.52;;;10.57;;
8938;SDS011;4504;48.810;9.172;2023-02-24T07:31:07;131.93;;;12.40;;
8938;SDS011;4504;48.810;9.172;2023-02-24T07:33:37;132.60;;;11.60;;
8938;SDS011;4504;48.810;9.172;2023-02-24T07:36:05;134.07;;;10.25;;
8938;SDS011;4504;48.810;9.172;2023-02-24T07:38:34;129.57;;;12.23;;
8938;SDS011;4504;48.810;9.172;2023-02-24T07:41:02;138.13;;;12.75;;
8938;SDS011;4504;48.810;9.172;2023-02-24T07:43:30;131.20;;;12.05;;
8938;SDS011;4504;48.810;9.172;2023-02-24T07:46:03;129.15;;;10.95;;
8938;SDS011;4504;48.810;9.172;2023-02-24T07:48:32;134.68;;;10.65;;
8938;SDS011;4504;48.810;9.172;2023-02-24T07:51:01;130.15;;;12.55;;
8938;SDS011;4504;48.810;9.172;2023-02-24T07:53:31;127.35;;;11.48;;
8938;SDS011;4504;48.810;9.172;2023-02-24T07:55:58;130.23;;;12.35;;
8938;SDS011;4504;48.810;9.172;2023-02-24T07:58:29;132.45;;;12.40;;
8938;SDS011;4504;48.810;9.172;2023-02-24T08:00:59;127.78;;;10.35;;
8938;SDS011;4504;48.810;9.172;2023-02-24T08:03:34;136.35;;;13.50;;
8938;SDS011;4504;48.810;9.172;2023-02-24T08:06:06;138.98;;;11.60;;
8938;SDS011;4504;48.810;9.172;2023-02-24T08:08:40;133.07;;;12.15;;
8938;SDS011;4504;48.810;9.172;2023-02-24T08:11:41;134.05;;;11.40;;
8938;SDS011;4504;48.810;9.172;2023-02-24T08:14:10;137.50;;;12.57;;
8938;SDS011;4504;48.810;9.172;2023-02-24T08:16:39;134.07;;;12.13;;
8938;SDS011;4504;48.810;9.172;2023-02-24T08:19:08;132.50;;;11.48;;
8938;SDS011;4504;48.810;9.172;2023-02-24T08:21:39;139.50;;;14.13;;
8938;SDS011;4504;48.810;9.172;2023-02-24T08:24:12;127.88;;;11.32;;
8938;SDS011;4504;48.810;9.172;2023-02-24T08:26:42;139.05;;;12.50;;
8938;SDS011;4504;48.810;9.172;2023-02-24T08:29:10;130.02;;;11.35;;
8938;SDS011;4504;48.810;9.172;2023-02-24T08:31:37;127.10;;;10.40;;
8938;SDS011;4504;48.810;9.172;2023-02-24T08:34:04;131.82;;;12.07;;
8938;SDS011;4504;48.810;9.172;2023-02-24T08:36:31;132.35;;;11.65;;
8938;SDS011;4504;48.810;9.172;2023-02-24T08:39:00;128.75;;;9.95;;
8938;SDS011;4504;48.810;9.172;2023-02-24T08:41:27;127.38;;;10.20;;
8938;SDS011;4504;48.810;9.172;2023-02-24T08:44:11;132.38;;;10.60;;
8938;SDS011;4504;48.810;9.172;2023-02-24T08:46:43;129.63;;;10.23;;
8938;SDS011;4504;48.810;9.172;2023-02-24T08:49:10;129.77;;;10.77;;
8938;SDS011;4504;48.810;9.172;2023-02-24T08:51:41;131.32;;;11.68;;
8938;SDS011;4504;48.810;9.172;2023-02-24T08:54:11;125.57;;;11.15;;
8938;SDS011;4504;48.810;9.172;2023-02-24T08:56:41;131.55;;;10.90;;
8938;SDS011;4504;48.810;9.172;2023-02-24T08:59:13;127.28;;;11.25;;
8938;SDS011;4504;48.810;9.172;2023-02-24T09:02:02;130.13;;;11.40;;
8938;SDS011;4504;48.810;9.172;2023-02-24T09:04:52;128.25;;;9.45;;
8938;SDS011;4504;48.810;9.172;2023-02-24T09:07:21;133.77;;;9.77;;
8938;SDS011;4504;48.810;9.172;2023-02-24T09:09:52;127.93;;;10.68;;
8938;SDS011;4504;48.810;9.172;2023-02-24T09:12:22;130.38;;;10.05;;
8938;SDS011;4504;48.810;9.172;2023-02-24T09:14:51;129.20;;;9.70;;
8938;SDS011;4504;48.810;9.172;2023-02-24T09:17:21;122.50;;;8.82;;
8938;SDS011;4504;48.810;9.172;2023-02-24T09:20:04;131.13;;;9.30;;
8938;SDS011;4504;48.810;9.172;2023-02-24T09:22:49;122.57;;;9.32;;
8938;SDS011;4504;48.810;9.172;2023-02-24T09:25:29;126.50;;;10.63;;
8938;SDS011;4504;48.810;9.172;2023-02-24T09:28:09;127.05;;;10.68;;
8938;SDS011;4504;48.810;9.172;2023-02-24T09:30:42;130.63;;;12.10;;
8938;SDS011;4504;48.810;9.172;2023-02-24T09:33:18;133.20;;;10.70;;
8938;SDS011;4504;48.810;9.172;2023-02-24T09:35:48;125.30;;;9.88;;
8938;SDS011;4504;48.810;9.172;2023-02-24T09:38:17;126.72;;;10.40;;
8938;SDS011;4504;48.810;9.172;2023-02-24T09:41:06;127.25;;;10.23;;
8938;SDS011;4504;48.810;9.172;2023-02-24T09:43:53;131.57;;;9.13;;
8938;SDS011;4504;48.810;9.172;2023-02-24T09:46:24;129.00;;;9.68;;
8938;SDS011;4504;48.810;9.172;2023-02-24T09:48:53;125.72;;;9.35;;
8938;SDS011;4504;48.810;9.172;2023-02-24T09:51:29;125.63;;;10.32;;
8938;SDS011;4504;48.810;9.172;2023-02-24T09:54:11;132.68;;;9.35;;
8938;SDS011;4504;48.810;9.172;2023-02-24T09:56:43;123.20;;;8.55;;
8938;SDS011;4504;48.810;9.172;2023-02-24T09:59:31;124.65;;;8.70;;
8938;SDS011;4504;48.810;9.172;2023-02-24T10:02:09;123.82;;;7.97;;
8938;SDS011;4504;48.810;9.172;2023-02-24T10:04:53;135.68;;;9.35;;
8938;SDS011;4504;48.810;9.172;2023-02-24T10:07:32;132.30;;;8.70;;
8938;SDS011;4504;48.810;9.172;2023-02-24T10:10:04;120.13;;;7.78;;
8938;SDS011;4504;48.810;9.172;2023-02-24T10:12:47;123.13;;;8.02;;
8938;SDS011;4504;48.810;9.172;2023-02-24T10:15:18;121.43;;;7.60;;
8938;SDS011;4504;48.810;9.172;2023-02-24T10:18:19;117.97;;;6.20;;
8938;SDS011;4504;48.810;9.172;2023-02-24T10:20:54;121.10;;;7.07;;
8938;SDS011;4504;48.810;9.172;2023-02-24T10:23:28;126.85;;;7.57;;
8938;SDS011;4504;48.810;9.172;2023-02-24T10:26:10;121.28;;;7.03;;
8938;SDS011;4504;48.810;9.172;2023-02-24T10:28:58;117.68;;;6.10;;
8938;SDS011;4504;48.810;9.172;2023-02-24T10:31:35;126.15;;;7.28;;
8938;SDS011;4504;48.810;9.172;2023-02-24T10:34:07;121.13;;;6.78;;
8938;SDS011;4504;48.810;9.172;2023-02-24T10:36:36;124.15;;;6.95;;
8938;SDS011;4504;48.810;9.172;2023-02-24T10:39:08;121.82;;;7.55;;
8938;SDS011;4504;48.810;9.172;2023-02-24T10:41:41;122.95;;;8.25;;
8938;SDS011;4504;48.810;9.172;2023-02-24T10:44:18;123.72;;;7.78;;
8938;SDS011;4504;48.810;9.172;2023-02-24T10:46:57;124.13;;;8.95;;
8938;SDS011;4504;48.810;9.172;2023-02-24T10:49:42;123.60;;;8.30;;
8938;SDS011;4504;48.810;9.172;2023-02-24T10:52:25;124.28;;;8.88;;
8938;SDS011;4504;48.810;9.172;2023-02-24T10:55:02;128.85;;;9.10;;
8938;SDS011;4504;48.810;9.172;2023-02-24T10:57:44;128.20;;;9.43;;
8938;SDS011;4504;48.810;9.172;2023-02-24T11:00:18;127.72;;;9.18;;
8938;SDS011;4504;48.810;9.172;2023-02-24T11:02:56;131.45;;;8.40;;
8938;SDS011;4504;48.810;9.172;2023-02-24T11:05:34;129.85;;;8.75;;
8938;SDS011;4504;48.810;9.172;2023-02-24T11:08:29;130.68;;;10.13;;
8938;SDS011;4504;48.810;9.172;2023-02-24T11:11:19;132.00;;;9.23;;
8938;SDS011;4504;48.810;9.172;2023-02-24T11:13:54;131.47;;;9.53;;
8938;SDS011;4504;48.810;9.172;2023-02-24T11:16:45;122.50;;;8.70;;
8938;SDS011;4504;48.810;9.172;2023-02-24T11:19:32;127.68;;;10.45;;
8938;SDS011;4504;48.810;9.172;2023-02-24T11:22:03;122.15;;;8.93;;
8938;SDS011;4504;48.810;9.172;2023-02-24T11:24:34;134.38;;;10.00;;
8938;SDS011;4504;48.810;9.172;2023-02-24T11:27:03;125.40;;;9.98;;
8938;SDS011;4504;48.810;9.172;2023-02-24T11:29:34;124.15;;;8.40;;
8938;SDS011;4504;48.810;9.172;2023-02-24T11:32:25;125.20;;;11.40;;
8938;SDS011;4504;48.810;9.172;2023-02-24T11:35:08;128.48;;;10.13;;
8938;SDS011;4504;48.810;9.172;2023-02-24T11:37:42;124.88;;;9.52;;
8938;SDS011;4504;48.810;9.172;2023-02-24T11:40:14;130.73;;;10.75;;
8938;SDS011;4504;48.810;9.172;2023-02-24T11:42:45;124.22;;;9.27;;
8938;SDS011;4504;48.810;9.172;2023-02-24T11:45:18;130.23;;;10.98;;
8938;SDS011;4504;48.810;9.172;2023-02-24T11:47:56;122.85;;;8.73;;
8938;SDS011;4504;48.810;9.172;2023-02-24T11:50:28;127.43;;;9.10;;
8938;SDS011;4504;48.810;9.172;2023-02-24T11:53:01;123.05;;;9.13;;
8938;SDS011;4504;48.810;9.172;2023-02-24T11:55:37;131.48;;;8.20;;
8938;SDS011;4504;48.810;9.172;2023-02-24T11:58:11;133.70;;;9.90;;
8938;SDS011;4504;48.810;9.172;2023-02-24T12:00:50;131.75;;;9.85;;
8938;SDS011;4504;48.810;9.172;2023-02-24T12:03:24;125.28;;;9.18;;
8938;SDS011;4504;48.810;9.172;2023-02-24T12:06:00;136.25;;;9.95;;
8938;SDS011;4504;48.810;9.172;2023-02-24T12:08:35;130.25;;;8.88;;
8938;SDS011;4504;48.810;9.172;2023-02-24T12:11:05;129.90;;;10.38;;
8938;SDS011;4504;48.810;9.172;2023-02-24T12:13:38;121.65;;;8.65;;
8938;SDS011;4504;48.810;9.172;2023-02-24T12:16:12;130.20;;;9.73;;
8938;SDS011;4504;48.810;9.172;2023-02-24T12:18:44;124.57;;;8.98;;
8938;SDS011;4504;48.810;9.172;2023-02-24T12:21:14;128.35;;;9.20;;
8938;SDS011;4504;48.810;9.172;2023-02-24T12:23:46;132.15;;;10.25;;
8938;SDS011;4504;48.810;9.172;2023-02-24T12:26:18;124.90;;;8.25;;
8938;SDS011;4504;48.810;9.172;2023-02-24T12:28:52;121.78;;;7.30;;
8938;SDS011;4504;48.810;9.172;2023-02-24T12:31:33;126.25;;;8.57;;
8938;SDS011;4504;48.810;9.172;2023-02-24T12:34:12;128.45;;;8.00;;
8938;SDS011;4504;48.810;9.172;2023-02-24T12:36:58;129.60;;;7.40;;
8938;SDS011;4504;48.810;9.172;2023-02-24T12:39:43;131.30;;;9.55;;
8938;SDS011;4504;48.810;9.172;2023-02-24T12:42:19;129.88;;;8.65;;
8938;SDS011;4504;48.810;9.172;2023-02-24T12:44:55;126.72;;;9.02;;
8938;SDS011;4504;48.810;9.172;2023-02-24T12:47:32;125.10;;;9.25;;
8938;SDS011;4504;48.810;9.172;2023-02-24T12:50:08;123.47;;;8.15;;
8938;SDS011;4504;48.810;9.172;2023-02-24T12:52:51;123.15;;;7.45;;
8938;SDS011;4504;48.810;9.172;2023-02-24T12:55:22;119.50;;;7.20;;
8938;SDS011;4504;48.810;9.172;2023-02-24T12:57:58;129.05;;;7.28;;
8938;SDS011;4504;48.810;9.172;2023-02-24T13:00:35;119.22;;;7.10;;
8938;SDS011;4504;48.810;9.172;2023-02-24T13:03:11;121.38;;;7.80;;
8938;SDS011;4504;48.810;9.172;2023-02-24T13:05:54;122.72;;;7.47;;
8938;SDS011;4504;48.810;9.172;2023-02-24T13:08:29;129.13;;;8.07;;
8938;SDS011;4504;48.810;9.172;2023-02-24T13:11:06;129.60;;;7.03;;
8938;SDS011;4504;48.810;9.172;2023-02-24T13:13:40;120.68;;;6.00;;
8938;SDS011;4504;48.810;9.172;2023-02-24T13:16:13;118.75;;;6.22;;
8938;SDS011;4504;48.810;9.172;2023-02-24T13:18:40;130.32;;;5.45;;
8938;SDS011;4504;48.810;9.172;2023-02-24T13:21:08;113.95;;;4.90;;
8938;SDS011;4504;48.810;9.172;2023-02-24T13:23:52;115.53;;;5.10;;
8938;SDS011;4504;48.810;9.172;2023-02-24T13:26:21;131.05;;;5.88;;
8938;SDS011;4504;48.810;9.172;2023-02-24T13:28:55;119.70;;;6.45;;
8938;SDS011;4504;48.810;9.172;2023-02-24T13:31:25;124.20;;;8.10;;
8938;SDS011;4504;48.810;9.172;2023-02-24T13:33:52;120.40;;;8.63;;
8938;SDS011;4504;48.810;9.172;2023-02-24T13:36:20;123.07;;;9.05;;
8938;SDS011;4504;48.810;9.172;2023-02-24T13:38:49;121.70;;;8.18;;
8938;SDS011;4504;48.810;9.172;2023-02-24T13:41:35;127.93;;;8.40;;
8938;SDS011;4504;48.810;9.172;2023-02-24T13:44:20;122.72;;;6.97;;
8938;SDS011;4504;48.810;9.172;2023-02-24T13:46:53;120.68;;;6.80;;
8938;SDS011;4504;48.810;9.172;2023-02-24T13:49:37;126.88;;;9.02;;
8938;SDS011;4504;48.810;9.172;2023-02-24T13:52:16;127.53;;;9.30;;
8938;SDS011;4504;48.810;9.172;2023-02-24T13:57:52;126.28;;;8.75;;
8938;SDS011;4504;48.810;9.172;2023-02-24T14:00:34;125.13;;;8.68;;
8938;SDS011;4504;48.810;9.172;2023-02-24T14:03:16;122.18;;;6.93;;
8938;SDS011;4504;48.810;9.172;2023-02-24T14:05:46;119.28;;;7.28;;
8938;SDS011;4504;48.810;9.172;2023-02-24T14:08:17;119.65;;;8.00;;
8938;SDS011;4504;48.810;9.172;2023-02-24T14:10:49;124.60;;;8.50;;
8938;SDS011;4504;48.810;9.172;2023-02-24T14:13:21;122.82;;;7.47;;
8938;SDS011;4504;48.810;9.172;2023-02-24T14:15:52;124.00;;;8.48;;
8938;SDS011;4504;48.810;9.172;2023-02-24T14:18:20;127.00;;;6.28;;
8938;SDS011;4504;48.810;9.172;2023-02-24T14:20:49;122.28;;;6.97;;
8938;SDS011;4504;48.810;9.172;2023-02-24T14:23:20;118.13;;;6.03;;
8938;SDS011;4504;48.810;9.172;2023-02-24T14:25:53;117.70;;;6.00;;
8938;SDS011;4504;48.810;9.172;2023-02-24T14:28:22;118.10;;;5.72;;
8938;SDS011;4504;48.810;9.172;2023-02-24T14:30:53;120.13;;;6.63;;
8938;SDS011;4504;48.810;9.172;2023-02-24T14:33:24;120.22;;;6.50;;
8938;SDS011;4504;48.810;9.172;2023-02-24T14:35:54;117.57;;;5.60;;
8938;SDS011;4504;48.810;9.172;2023-02-24T14:38:31;118.13;;;6.57;;
8938;SDS011;4504;48.810;9.172;2023-02-24T14:40:59;123.10;;;7.05;;
8938;SDS011;4504;48.810;9.172;2023-02-24T14:43:27;128.05;;;6.95;;
8938;SDS011;4504;48.810;9.172;2023-02-24T14:45:55;120.93;;;6.65;;
8938;SDS011;4504;48.810;9.172;2023-02-24T14:48:24;126.30;;;7.25;;
8938;SDS011;4504;48.810;9.172;2023-02-24T14:50:52;119.72;;;6.60;;
8938;SDS011;4504;48.810;9.172;2023-02-24T14:53:22;116.43;;;6.25;;
8938;SDS011;4504;48.810;9.172;2023-02-24T14:55:52;121.07;;;7.03;;
8938;SDS011;4504;48.810;9.172;2023-02-24T14:58:25;120.85;;;7.22;;
8938;SDS011;4504;48.810;9.172;2023-02-24T15:00:55;128.20;;;6.50;;
8938;SDS011;4504;48.810;9.172;2023-02-24T15:03:29;122.25;;;6.85;;
8938;SDS011;4504;48.810;9.172;2023-02-24T15:05:59;117.45;;;6.70;;
8938;SDS011;4504;48.810;9.172;2023-02-24T15:08:32;123.75;;;6.78;;
8938;SDS011;4504;48.810;9.172;2023-02-24T15:11:06;121.63;;;5.73;;
8938;SDS011;4504;48.810;9.172;2023-02-24T15:13:44;120.82;;;7.22;;
8938;SDS011;4504;48.810;9.172;2023-02-24T15:16:16;118.28;;;5.90;;
8938;SDS011;4504;48.810;9.172;2023-02-24T15:18:48;121.43;;;6.95;;
8938;SDS011;4504;48.810;9.172;2023-02-24T15:21:20;120.03;;;6.72;;
8938;SDS011;4504;48.810;9.172;2023-02-24T15:23:48;118.80;;;6.38;;
8938;SDS011;4504;48.810;9.172;2023-02-24T15:26:27;116.22;;;5.68;;
8938;SDS011;4504;48.810;9.172;2023-02-24T15:28:56;114.63;;;5.45;;
8938;SDS011;4504;48.810;9.172;2023-02-24T15:31:24;118.05;;;6.25;;